Time;durP1;ratioP1;P1;durP2;ratioP2;P2;SDS_P1;SDS_P2;PMS_P1;PMS_P2;Temp;Humidity;BMP_temperature;BMP_pressure;BME280_temperature;BME280_humidity;BME280_pressure;Samples;Min_cycle;Max_cycle;Signal;HPM_P1;HPM_P2
2022/05/28 00:01:23;;;;;;;;;;;;;;;17.46;68.12;100664.09;4956915;28;103896;-49
2022/05/28 00:03:53;;;;;;;;;;;;;;;17.45;68.46;100665.22;4956283;28;101914;-49
2022/05/28 00:06:20;;;;;;;;;;;;;;;17.45;68.54;100659.69;4971496;28;102178;-49
2022/05/28 00:08:48;;;;;;;;;;;;;;;17.45;68.40;100659.69;4960119;28;102823;-49
2022/05/28 00:11:18;;;;;;;;;;;;;;;17.44;68.47;100660.84;4955881;28;104477;-49
2022/05/28 00:13:45;;;;;;;;;;;;;;;17.44;68.46;100655.34;4958741;28;102353;-49
2022/05/28 00:16:12;;;;;;;;;;;;;;;17.45;68.14;100662.44;4963063;28;102214;-49
2022/05/28 00:18:40;;;;;;;;;;;;;;;17.45;68.20;100651.44;4977370;28;103223;-49
2022/05/28 00:21:06;;;;;;;;;;;;;;;17.44;68.60;100649.84;4966997;28;103892;-49
2022/05/28 00:23:33;;;;;;;;;;;;;;;17.45;68.38;100647.91;4966498;28;102060;-49
2022/05/28 00:25:59;;;;;;;;;;;;;;;17.44;68.77;100644.34;4970837;28;102286;-49
2022/05/28 00:28:25;;;;;;;;;;;;;;;17.44;68.27;100641.59;4979879;28;102141;-49
2022/05/28 00:30:53;;;;;;;;;;;;;;;17.44;68.49;100638.03;4967071;28;104302;-49
2022/05/28 00:33:21;;;;;;;;;;;;;;;17.43;68.33;100623.47;4971875;28;101982;-50
2022/05/28 00:35:48;;;;;;;;;;;;;;;17.43;68.42;100623.47;4976973;28;102486;-49
2022/05/28 00:38:15;;;;;;;;;;;;;;;17.42;68.15;100624.59;4977672;28;102334;-49
2022/05/28 00:40:45;;;;;;;;;;;;;;;17.43;68.49;100637.22;4977513;28;103802;-49
2022/05/28 00:43:12;;;;;;;;;;;;;;;17.43;68.53;100623.47;4976797;28;102098;-49
2022/05/28 00:45:38;;;;;;;;;;;;;;;17.43;68.46;100619.91;4972555;28;102217;-49
2022/05/28 00:48:07;;;;;;;;;;;;;;;17.43;68.38;100631.72;4977346;28;102604;-49
2022/05/28 00:50:34;;;;;;;;;;;;;;;17.43;68.30;100631.72;4967422;28;104170;-49
2022/05/28 00:53:01;;;;;;;;;;;;;;;17.43;68.38;100620.72;4977209;28;102020;-49
2022/05/28 00:55:30;;;;;;;;;;;;;;;17.42;68.38;100624.59;4967828;28;102012;-49
2022/05/28 00:57:58;;;;;;;;;;;;;;;17.42;68.58;100627.34;4974802;28;102230;-49
2022/05/28 01:00:24;;;;;;;;;;;;;;;17.42;68.42;100624.59;4972926;28;104040;-49
2022/05/28 01:02:53;;;;;;;;;;;;;;;17.42;68.51;100624.59;4965705;28;102299;-49
2022/05/28 01:05:26;;;;;;;;;;;;;;;17.42;68.46;100621.84;4967822;28;102776;-49
2022/05/28 01:07:58;;;;;;;;;;;;;;;17.42;68.55;100619.09;4977408;28;102338;-50
2022/05/28 01:10:26;;;;;;;;;;;;;;;17.43;68.13;100615.22;4968246;28;103960;-49
2022/05/28 01:13:00;;;;;;;;;;;;;;;17.42;68.40;100619.09;4977676;28;102210;-49
2022/05/28 01:15:35;;;;;;;;;;;;;;;17.43;68.14;100615.22;4975806;28;102146;-49
2022/05/28 01:18:04;;;;;;;;;;;;;;;17.42;68.30;100613.59;4978759;28;102417;-49
2022/05/28 01:20:34;;;;;;;;;;;;;;;17.41;68.55;100617.47;4976988;28;103924;-49
2022/05/28 01:23:09;;;;;;;;;;;;;;;17.42;68.03;100610.84;4977993;28;102191;-49
2022/05/28 01:25:44;;;;;;;;;;;;;;;17.42;68.32;100610.84;4965577;28;102258;-49
2022/05/28 01:28:14;;;;;;;;;;;;;;;17.42;68.43;100612.78;4978984;28;102011;-49
2022/05/28 01:30:42;;;;;;;;;;;;;;;17.41;68.28;100609.22;4980208;28;103919;-50
2022/05/28 01:33:09;;;;;;;;;;;;;;;17.42;68.51;100613.59;4975099;28;102260;-49
2022/05/28 01:35:36;;;;;;;;;;;;;;;17.41;68.22;100611.97;4968353;28;102069;-50
2022/05/28 01:38:04;;;;;;;;;;;;;;;17.41;68.33;100600.16;4977729;28;102265;-49
2022/05/28 01:40:30;;;;;;;;;;;;;;;17.42;68.29;100602.59;4976646;28;104085;-50
2022/05/28 01:42:59;;;;;;;;;;;;;;;17.40;68.08;100610.34;4974651;28;102158;-49
2022/05/28 01:45:29;;;;;;;;;;;;;;;17.40;68.13;100607.59;4964959;28;102249;-50
2022/05/28 01:47:58;;;;;;;;;;;;;;;17.40;68.26;100593.03;4978560;28;102229;-49
2022/05/28 01:50:25;;;;;;;;;;;;;;;17.40;68.30;100604.03;4976498;28;104117;-50
2022/05/28 01:52:52;;;;;;;;;;;;;;;17.39;68.47;100597.72;4976007;28;102193;-49
2022/05/28 01:55:20;;;;;;;;;;;;;;;17.39;68.42;100597.72;4972246;28;102445;-49
2022/05/28 01:57:46;;;;;;;;;;;;;;;17.40;68.62;100599.34;4974527;28;102225;-50
2022/05/28 02:00:13;;;;;;;;;;;;;;;17.40;68.58;100604.03;4976068;28;104238;-49
2022/05/28 02:02:41;;;;;;;;;;;;;;;17.40;68.33;100604.03;4976065;28;102478;-49
2022/05/28 02:05:09;;;;;;;;;;;;;;;17.40;68.41;100607.59;4976494;28;102089;-49
2022/05/28 02:07:36;;;;;;;;;;;;;;;17.39;68.68;100599.69;4978274;28;102124;-49
2022/05/28 02:10:05;;;;;;;;;;;;;;;17.39;68.30;100611.47;4976181;28;103876;-49
2022/05/28 02:12:32;;;;;;;;;;;;;;;17.39;68.41;100608.72;4976386;28;102430;-49
2022/05/28 02:15:10;;;;;;;;;;;;;;;17.41;68.19;100611.16;4974947;28;102926;-49
2022/05/28 02:17:39;;;;;;;;;;;;;;;17.38;68.37;100607.13;4969373;28;102291;-49
2022/05/28 02:20:12;;;;;;;;;;;;;;;17.40;68.50;100607.59;4976213;28;103910;-49
2022/05/28 02:22:42;;;;;;;;;;;;;;;17.39;68.71;100607.94;4974331;28;102011;-49
2022/05/28 02:25:10;;;;;;;;;;;;;;;17.38;68.50;100596.13;4976014;28;102138;-49
2022/05/28 02:27:39;;;;;;;;;;;;;;;17.38;68.75;100590.63;4977665;28;102261;-49
2022/05/28 02:30:06;;;;;;;;;;;;;;;17.38;68.41;100590.63;4981473;28;103961;-49
2022/05/28 02:32:33;;;;;;;;;;;;;;;17.38;68.39;100590.63;4975756;28;102223;-49
2022/05/28 02:34:59;;;;;;;;;;;;;;;17.39;68.65;100594.97;4975027;28;102445;-49
2022/05/28 02:37:27;;;;;;;;;;;;;;;17.37;68.49;100594.47;4972614;28;102130;-49
2022/05/28 02:39:57;;;;;;;;;;;;;;;17.39;68.23;100596.91;4974396;28;103910;-49
2022/05/28 02:42:23;;;;;;;;;;;;;;;17.38;68.35;100603.53;4975439;28;102288;-49
2022/05/28 02:44:49;;;;;;;;;;;;;;;17.37;68.16;100586.22;4974278;28;102178;-49
2022/05/28 02:47:16;;;;;;;;;;;;;;;17.37;68.10;100583.47;4977985;28;102429;-49
2022/05/28 02:49:43;;;;;;;;;;;;;;;17.38;68.26;100596.13;4975448;28;103798;-50
2022/05/28 02:52:09;;;;;;;;;;;;;;;17.39;68.16;100619.75;4975339;28;102514;-49
2022/05/28 02:54:38;;;;;;;;;;;;;;;17.40;68.07;100621.34;4975396;28;102030;-49
2022/05/28 02:57:05;;;;;;;;;;;;;;;17.40;68.12;100620.53;4977868;28;102168;-49
2022/05/28 02:59:33;;;;;;;;;;;;;;;17.40;67.77;100626.84;4975530;28;104096;-49
2022/05/28 03:02:00;;;;;;;;;;;;;;;17.42;67.96;100624.59;4973665;28;102158;-49
2022/05/28 03:04:26;;;;;;;;;;;;;;;17.42;68.36;100624.59;4967102;28;102124;-49
2022/05/28 03:06:52;;;;;;;;;;;;;;;17.43;68.21;100619.91;4957895;28;102346;-49
2022/05/28 03:09:18;;;;;;;;;;;;;;;17.43;68.47;100620.72;4956382;28;103872;-49
2022/05/28 03:11:46;;;;;;;;;;;;;;;17.43;68.33;100623.47;4956626;28;101993;-49
2022/05/28 03:14:13;;;;;;;;;;;;;;;17.44;68.27;100622.31;4972145;28;102052;-49
2022/05/28 03:16:39;;;;;;;;;;;;;;;17.44;68.53;100633.34;4969993;28;102517;-50
2022/05/28 03:19:06;;;;;;;;;;;;;;;17.44;68.24;100618.78;4970713;28;103877;-49
2022/05/28 03:21:33;;;;;;;;;;;;;;;17.44;68.24;100622.31;4956627;28;102253;-49
2022/05/28 03:24:00;;;;;;;;;;;;;;;17.45;68.67;100623.13;4968915;28;102006;-49
2022/05/28 03:26:29;;;;;;;;;;;;;;;17.45;68.47;100626.69;4977256;28;102379;-49
2022/05/28 03:28:57;;;;;;;;;;;;;;;17.46;68.24;100620.06;4972451;28;103899;-49
2022/05/28 03:31:24;;;;;;;;;;;;;;;17.46;68.40;100631.09;4963423;28;102319;-49
2022/05/28 03:33:50;;;;;;;;;;;;;;;17.48;68.16;100636.25;4972942;28;102054;-49
2022/05/28 03:36:17;;;;;;;;;;;;;;;17.48;68.26;100639.81;4964607;28;102512;-49
2022/05/28 03:38:43;;;;;;;;;;;;;;;17.48;68.44;100642.56;4955267;28;103873;-49
2022/05/28 03:41:10;;;;;;;;;;;;;;;17.50;68.46;100645.81;4956731;28;101943;-49
2022/05/28 03:43:36;;;;;;;;;;;;;;;17.50;68.21;100642.25;4971109;28;102235;-50
2022/05/28 03:46:04;;;;;;;;;;;;;;;17.50;68.51;100647.75;4976689;28;102207;-49
2022/05/28 03:48:31;;;;;;;;;;;;;;;17.49;68.26;100648.88;4977743;28;104000;-50
2022/05/28 03:50:57;;;;;;;;;;;;;;;17.50;68.31;100654.06;4979244;28;102220;-49
2022/05/28 03:53:24;;;;;;;;;;;;;;;17.50;68.27;100665.06;4976378;28;102324;-49
2022/05/28 03:55:51;;;;;;;;;;;;;;;17.50;68.54;100665.06;4976862;28;102609;-49
2022/05/28 03:58:17;;;;;;;;;;;;;;;17.51;68.36;100663.94;4961113;28;103882;-49
2022/05/28 04:00:43;;;;;;;;;;;;;;;17.51;68.48;100661.19;4959615;28;102242;-49
2022/05/28 04:03:11;;;;;;;;;;;;;;;17.51;68.56;100672.19;4970930;28;102074;-49
2022/05/28 04:05:49;;;;;;;;;;;;;;;17.52;68.46;100689.50;4975319;28;102563;-49
2022/05/28 04:08:17;;;;;;;;;;;;;;;17.52;68.72;100687.56;4972121;28;103855;-50
2022/05/28 04:10:43;;;;;;;;;;;;;;;17.52;68.58;100695.81;4975247;28;101983;-49
2022/05/28 04:13:09;;;;;;;;;;;;;;;17.52;68.34;100706.81;4971392;28;102280;-49
2022/05/28 04:15:37;;;;;;;;;;;;;;;17.52;68.29;100701.31;4975216;28;102329;-50
2022/05/28 04:18:03;;;;;;;;;;;;;;;17.53;68.49;100707.66;4965045;28;103912;-49
2022/05/28 04:20:31;;;;;;;;;;;;;;;17.53;68.24;100711.22;4975590;28;102193;-49
2022/05/28 04:22:57;;;;;;;;;;;;;;;17.53;68.28;100708.47;4973198;28;102425;-49
2022/05/28 04:25:23;;;;;;;;;;;;;;;17.52;68.72;100715.06;4967880;28;102218;-49
2022/05/28 04:27:50;;;;;;;;;;;;;;;17.53;68.20;100713.97;4978485;28;103950;-49
2022/05/28 04:30:16;;;;;;;;;;;;;;;17.53;68.79;100719.47;4975026;28;102223;-49
2022/05/28 04:32:43;;;;;;;;;;;;;;;17.54;68.68;100714.78;4978480;28;102320;-49
2022/05/28 04:35:10;;;;;;;;;;;;;;;17.54;68.42;100720.28;4972002;28;102399;-49
2022/05/28 04:37:38;;;;;;;;;;;;;;;17.54;68.43;100726.59;4976420;28;103952;-49
2022/05/28 04:40:06;;;;;;;;;;;;;;;17.54;68.48;100718.34;4969895;28;101967;-49
2022/05/28 04:42:32;;;;;;;;;;;;;;;17.56;68.40;100718.00;4977544;28;102079;-49
2022/05/28 04:44:58;;;;;;;;;;;;;;;17.54;68.45;100715.59;4977205;28;102178;-49
2022/05/28 04:47:24;;;;;;;;;;;;;;;17.57;68.50;100718.84;4978386;28;104071;-49
2022/05/28 04:49:51;;;;;;;;;;;;;;;17.57;68.45;100713.34;4977372;28;102167;-49
2022/05/28 04:52:17;;;;;;;;;;;;;;;17.57;68.63;100729.84;4973837;28;102210;-50
2022/05/28 04:54:45;;;;;;;;;;;;;;;17.58;68.60;100732.28;4967632;28;102393;-50
2022/05/28 04:57:11;;;;;;;;;;;;;;;17.58;68.44;100725.97;4977666;28;103936;-49
2022/05/28 04:59:37;;;;;;;;;;;;;;;17.59;68.50;100735.81;4976625;28;103926;-49
2022/05/28 05:02:05;;;;;;;;;;;;;;;17.60;68.53;100740.19;4973586;28;102386;-50
2022/05/28 05:04:31;;;;;;;;;;;;;;;17.61;68.12;100744.59;4970150;28;102693;-50
2022/05/28 05:06:58;;;;;;;;;;;;;;;17.62;68.65;100732.44;4969959;28;103920;-49
2022/05/28 05:09:24;;;;;;;;;;;;;;;17.62;68.21;100730.50;4967322;28;102021;-49
2022/05/28 05:11:52;;;;;;;;;;;;;;;17.64;68.36;100738.47;4963016;28;101976;-49
2022/05/28 05:14:18;;;;;;;;;;;;;;;17.65;68.17;100720.81;4959991;28;102323;-49
2022/05/28 05:16:45;;;;;;;;;;;;;;;17.67;68.64;100718.53;4965322;28;108494;-50
2022/05/28 05:19:12;;;;;;;;;;;;;;;17.68;68.61;100720.97;4978472;28;101935;-50
2022/05/28 05:21:38;;;;;;;;;;;;;;;17.70;68.20;100715.16;4977301;28;102274;-49
2022/05/28 05:24:09;;;;;;;;;;;;;;;17.72;68.58;100726.66;4964400;28;102209;-49
2022/05/28 05:26:38;;;;;;;;;;;;;;;17.74;68.10;100724.38;4960667;28;103843;-49
2022/05/28 05:29:05;;;;;;;;;;;;;;;17.76;68.13;100719.41;4965822;28;102429;-49
2022/05/28 05:31:32;;;;;;;;;;;;;;;17.76;68.33;100711.97;4967603;28;102196;-49
2022/05/28 05:33:59;;;;;;;;;;;;;;;17.80;68.15;100711.31;4972632;28;102130;-49
2022/05/28 05:36:25;;;;;;;;;;;;;;;17.80;68.10;100709.38;4960860;28;106332;-50
2022/05/28 05:38:51;;;;;;;;;;;;;;;17.82;67.99;100703.56;4963185;28;102325;-49
2022/05/28 05:41:18;;;;;;;;;;;;;;;17.83;68.43;100697.72;4964139;28;102196;-49
2022/05/28 05:43:44;;;;;;;;;;;;;;;17.85;67.87;100700.16;4970146;28;104893;-49
2022/05/28 05:46:13;;;;;;;;;;;;;;;17.87;68.23;100695.16;4963201;28;104032;-49
2022/05/28 05:48:40;;;;;;;;;;;;;;;17.89;67.55;100704.72;4966128;28;102197;-49
2022/05/28 05:51:07;;;;;;;;;;;;;;;17.92;67.95;100697.75;4975420;28;102621;-50
2022/05/28 05:53:35;;;;;;;;;;;;;;;17.94;67.49;100690.78;4975331;28;102361;-49
2022/05/28 05:56:01;;;;;;;;;;;;;;;18.00;67.29;100688.69;4970302;28;103886;-49
2022/05/28 05:58:28;;;;;;;;;;;;;;;18.01;67.13;100685.63;4965586;28;101954;-49
2022/05/28 06:00:55;;;;;;;;;;;;;;;18.04;67.14;100683.38;4974672;28;102562;-50
2022/05/28 06:03:22;;;;;;;;;;;;;;;18.05;66.93;100673.97;4967690;28;102802;-49
2022/05/28 06:05:49;;;;;;;;;;;;;;;18.06;67.26;100675.56;4970242;28;103796;-50
2022/05/28 06:08:15;;;;;;;;;;;;;;;18.07;67.16;100689.03;4976440;28;103160;-51
2022/05/28 06:10:43;;;;;;;;;;;;;;;18.10;67.02;100687.56;4975918;28;101994;-49
2022/05/28 06:13:09;;;;;;;;;;;;;;;18.10;67.03;100696.63;4980626;28;102251;-50
2022/05/28 06:15:37;;;;;;;;;;;;;;;18.10;66.88;100699.38;4966929;28;103912;-51
2022/05/28 06:18:03;;;;;;;;;;;;;;;18.10;67.03;100693.88;4975159;28;102288;-49
2022/05/28 06:20:30;;;;;;;;;;;;;;;18.10;66.85;100698.56;4968074;28;102919;-49
2022/05/28 06:22:57;;;;;;;;;;;;;;;18.13;67.03;100697.94;4966325;28;102489;-49
2022/05/28 06:25:23;;;;;;;;;;;;;;;18.13;66.78;100697.94;4964634;28;103888;-49
2022/05/28 06:27:49;;;;;;;;;;;;;;;18.14;66.80;100705.06;4968576;28;102290;-49
2022/05/28 06:30:15;;;;;;;;;;;;;;;18.13;66.73;100693.22;4971390;28;102653;-50
2022/05/28 06:32:42;;;;;;;;;;;;;;;18.16;67.11;100694.53;4968742;28;102259;-49
2022/05/28 06:35:09;;;;;;;;;;;;;;;18.17;67.03;100693.41;4958763;28;103785;-49
2022/05/28 06:37:38;;;;;;;;;;;;;;;18.19;66.95;100693.91;4955976;28;102275;-49
2022/05/28 06:40:05;;;;;;;;;;;;;;;18.19;66.46;100691.16;4956144;28;102278;-49
2022/05/28 06:42:32;;;;;;;;;;;;;;;18.19;67.00;100686.44;4958349;28;102214;-50
2022/05/28 06:44:59;;;;;;;;;;;;;;;18.19;66.74;100680.13;4955310;28;103770;-49
2022/05/28 06:47:26;;;;;;;;;;;;;;;18.18;66.72;100679.31;4957767;28;102196;-49
2022/05/28 06:52:40;;;;;;;;;;;;;;;18.21;66.83;100680.59;4957578;28;102415;-49
2022/05/28 06:55:08;;;;;;;;;;;;;;;18.21;66.69;100672.34;4956453;28;103980;-49
2022/05/28 06:57:35;;;;;;;;;;;;;;;18.20;66.59;100673.47;4964012;28;102312;-49
2022/05/28 07:00:04;;;;;;;;;;;;;;;18.19;66.73;100674.63;4970275;28;102285;-49
2022/05/28 07:02:31;;;;;;;;;;;;;;;18.21;66.58;100672.34;4977657;28;102143;-50
2022/05/28 07:04:57;;;;;;;;;;;;;;;18.22;66.69;100673.97;4975447;28;103817;-50
2022/05/28 07:07:23;;;;;;;;;;;;;;;18.22;66.70;100652.75;4977085;28;102103;-50
2022/05/28 07:09:52;;;;;;;;;;;;;;;18.22;66.91;100657.44;4975866;28;102162;-49
2022/05/28 07:12:19;;;;;;;;;;;;;;;18.21;66.53;100662.16;4977750;28;102278;-49
2022/05/28 07:14:46;;;;;;;;;;;;;;;18.23;66.59;100659.06;4975715;28;104007;-49
2022/05/28 07:17:12;;;;;;;;;;;;;;;18.23;66.61;100661.81;4976597;28;102015;-49
2022/05/28 07:19:38;;;;;;;;;;;;;;;18.21;66.65;100661.31;4975722;28;102094;-49
2022/05/28 07:22:04;;;;;;;;;;;;;;;18.23;66.84;100659.88;4970885;28;102881;-49
2022/05/28 07:24:31;;;;;;;;;;;;;;;18.26;66.44;100669.44;4960025;28;103903;-49
2022/05/28 07:26:59;;;;;;;;;;;;;;;18.25;66.50;100663.13;4960285;28;102596;-49
2022/05/28 07:29:25;;;;;;;;;;;;;;;18.26;66.47;100672.19;4959313;28;102928;-49
2022/05/28 07:31:52;;;;;;;;;;;;;;;18.27;66.77;100670.25;4961206;28;102257;-49
2022/05/28 07:34:18;;;;;;;;;;;;;;;18.29;66.25;100663.28;4965741;28;103963;-49
2022/05/28 07:36:44;;;;;;;;;;;;;;;18.32;66.41;100662.63;4966937;28;102424;-49
2022/05/28 07:39:10;;;;;;;;;;;;;;;18.35;66.16;100667.47;4959788;28;102077;-49
2022/05/28 07:41:38;;;;;;;;;;;;;;;18.33;66.27;100658.75;4960486;28;102243;-49
2022/05/28 07:44:06;;;;;;;;;;;;;;;18.32;66.40;100664.56;4970910;28;103821;-50
2022/05/28 07:46:33;;;;;;;;;;;;;;;18.30;66.62;100653.06;4965232;28;102319;-49
2022/05/28 07:49:00;;;;;;;;;;;;;;;18.31;66.64;100646.41;4978996;28;102225;-49
2022/05/28 07:51:26;;;;;;;;;;;;;;;18.31;66.06;100638.16;4975342;28;102310;-49
2022/05/28 07:53:53;;;;;;;;;;;;;;;18.30;66.48;100647.56;4968279;28;103901;-50
2022/05/28 07:56:20;;;;;;;;;;;;;;;18.28;66.87;100647.06;4972183;28;102770;-49
2022/05/28 07:58:46;;;;;;;;;;;;;;;18.29;66.53;100654.22;4962482;28;102605;-49
2022/05/28 08:01:21;;;;;;;;;;;;;;;18.28;66.74;100656.13;4964178;28;104638;-49
2022/05/28 08:03:48;;;;;;;;;;;;;;;18.30;66.34;100670.41;4976810;28;103944;-49
2022/05/28 08:06:14;;;;;;;;;;;;;;;18.30;66.63;100664.91;4978211;28;102048;-49
2022/05/28 08:08:41;;;;;;;;;;;;;;;18.30;66.21;100664.91;4969737;28;102179;-50
2022/05/28 08:11:08;;;;;;;;;;;;;;;18.32;66.58;100668.16;4979772;28;102591;-49
2022/05/28 08:13:38;;;;;;;;;;;;;;;18.30;66.56;100656.63;4978847;28;104042;-49
2022/05/28 08:16:05;;;;;;;;;;;;;;;18.29;66.42;100657.78;4969899;28;102147;-49
2022/05/28 08:18:36;;;;;;;;;;;;;;;18.28;66.39;100650.63;4978735;28;102102;-50
2022/05/28 08:23:49;;;;;;;;;;;;;;;18.28;66.45;100661.63;4974109;28;104465;-49
2022/05/28 08:26:19;;;;;;;;;;;;;;;18.31;66.55;100655.47;4965760;28;102393;-49
2022/05/28 08:28:46;;;;;;;;;;;;;;;18.34;66.26;100663.09;4971059;28;102522;-49
2022/05/28 08:31:16;;;;;;;;;;;;;;;18.32;66.42;100651.63;4971825;28;102202;-49
2022/05/28 08:33:45;;;;;;;;;;;;;;;18.34;66.28;100654.03;4976391;28;104203;-49
2022/05/28 08:36:12;;;;;;;;;;;;;;;18.34;66.27;100648.53;4976165;28;102338;-49
2022/05/28 08:38:39;;;;;;;;;;;;;;;18.33;66.36;100644.97;4980874;28;102332;-49
2022/05/28 08:41:14;;;;;;;;;;;;;;;18.32;66.03;100651.63;4972737;28;103031;-49
2022/05/28 08:43:44;;;;;;;;;;;;;;;18.34;66.22;100649.31;4973296;28;104249;-49
2022/05/28 08:46:13;;;;;;;;;;;;;;;18.34;66.19;100649.31;4969902;28;102453;-49
2022/05/28 08:48:42;;;;;;;;;;;;;;;18.35;66.40;100647.38;4973833;28;102613;-49
2022/05/28 08:51:13;;;;;;;;;;;;;;;18.36;66.15;100658.09;4971942;28;102601;-49
2022/05/28 08:53:45;;;;;;;;;;;;;;;18.36;66.36;100655.34;4968034;28;104061;-49
2022/05/28 08:56:14;;;;;;;;;;;;;;;18.35;66.19;100655.66;4976885;28;102638;-49
2022/05/28 08:58:42;;;;;;;;;;;;;;;18.35;66.55;100656.44;4961446;28;102275;-49
2022/05/28 09:01:11;;;;;;;;;;;;;;;18.33;66.63;100653.22;4978342;28;102558;-49
2022/05/28 09:03:43;;;;;;;;;;;;;;;18.33;66.47;100658.75;4972167;28;104054;-49
2022/05/28 09:06:12;;;;;;;;;;;;;;;18.34;66.33;100652.09;4964216;28;102399;-49
2022/05/28 09:08:41;;;;;;;;;;;;;;;18.35;66.16;100653.69;4971649;28;102290;-50
2022/05/28 09:11:11;;;;;;;;;;;;;;;18.34;66.47;100654.84;4975788;28;102215;-50
2022/05/28 09:13:39;;;;;;;;;;;;;;;18.33;66.55;100652.41;4963953;28;108898;-50
2022/05/28 09:16:07;;;;;;;;;;;;;;;18.32;66.44;100645.28;4967916;27;102069;-50
2022/05/28 09:18:35;;;;;;;;;;;;;;;18.31;66.67;100643.66;4970689;28;102549;-50
2022/05/28 09:21:03;;;;;;;;;;;;;;;18.31;66.29;100649.97;4975155;28;102781;-49
2022/05/28 09:23:36;;;;;;;;;;;;;;;18.28;66.54;100650.63;4973561;28;104005;-49
2022/05/28 09:26:03;;;;;;;;;;;;;;;18.27;66.63;100654.50;4975163;28;102253;-49
2022/05/28 09:28:35;;;;;;;;;;;;;;;18.26;66.90;100652.91;4968377;28;102331;-49
2022/05/28 09:31:06;;;;;;;;;;;;;;;18.23;66.91;100653.56;4978243;28;102608;-50
2022/05/28 09:33:43;;;;;;;;;;;;;;;18.21;66.70;100659.41;4960968;28;103832;-49
2022/05/28 09:36:13;;;;;;;;;;;;;;;18.19;66.82;100658.91;4970703;28;102872;-49
2022/05/28 09:38:45;;;;;;;;;;;;;;;18.19;67.04;100669.09;4970579;28;103665;-50
2022/05/28 09:41:21;;;;;;;;;;;;;;;18.17;66.81;100671.38;4967732;28;102322;-49
2022/05/28 09:43:52;;;;;;;;;;;;;;;18.59;64.99;100672.47;4966582;28;104628;-53
2022/05/28 09:46:23;;;;;;;;;;;;;;;19.00;63.37;100665.59;4967647;28;102463;-55
2022/05/28 09:48:57;;;;;;;;;;;;;;;19.11;62.72;100671.56;4962673;28;102145;-52
2022/05/28 09:51:26;;;;;;;;;;;;;;;19.21;62.59;100671.22;4960806;28;102560;-50
2022/05/28 09:54:17;;;;;;;;;;;;;;;19.32;62.01;100666.13;4957874;28;103981;-54
2022/05/28 09:56:44;;;;;;;;;;;;;;;19.37;61.27;100666.78;4962008;28;102310;-60
2022/05/28 09:59:18;;;;;;;;;;;;;;;19.38;61.28;100665.63;4957849;28;102007;-51
2022/05/28 10:01:50;;;;;;;;;;;;;;;19.34;61.05;100670.19;4963949;28;102270;-53
2022/05/28 10:04:30;;;;;;;;;;;;;;;19.38;60.94;100673.91;4966795;28;103604;-50
2022/05/28 10:06:58;;;;;;;;;;;;;;;19.34;61.20;100658.34;4970798;28;102175;-51
2022/05/28 10:09:27;;;;;;;;;;;;;;;19.26;61.39;100650.91;4960143;28;102229;-52
2022/05/28 10:11:55;;;;;;;;;;;;;;;19.25;62.18;100657.56;4958555;28;102580;-52
2022/05/28 10:14:22;;;;;;;;;;;;;;;19.27;61.59;100669.09;4965938;28;103858;-52
2022/05/28 10:16:53;;;;;;;;;;;;;;;19.53;60.73;100655.97;4967856;28;102624;-51
2022/05/28 10:19:24;;;;;;;;;;;;;;;19.61;60.98;100662.56;4974042;28;102094;-51
2022/05/28 10:21:52;;;;;;;;;;;;;;;19.45;60.86;100657.63;4957997;28;102341;-51
2022/05/28 10:24:20;;;;;;;;;;;;;;;19.43;61.50;100651.63;4971512;28;104001;-51
2022/05/28 10:26:50;;;;;;;;;;;;;;;19.33;61.77;100656.72;4974006;28;102424;-51
2022/05/28 10:29:18;;;;;;;;;;;;;;;19.39;61.90;100650.69;4971437;28;102348;-52
2022/05/28 10:31:45;;;;;;;;;;;;;;;19.39;61.58;100656.19;4974076;28;102368;-51
2022/05/28 10:34:21;;;;;;;;;;;;;;;19.39;61.81;100650.69;4976811;28;103639;-51
2022/05/28 10:36:47;;;;;;;;;;;;;;;19.42;61.63;100646.44;4973264;28;102160;-51
2022/05/28 10:39:17;;;;;;;;;;;;;;;19.43;61.96;100639.78;4976325;28;102311;-51
2022/05/28 10:41:43;;;;;;;;;;;;;;;19.47;62.13;100642.69;4977714;28;102415;-51
2022/05/28 10:44:16;;;;;;;;;;;;;;;19.48;61.96;100642.38;4976637;28;104055;-51
2022/05/28 10:47:00;;;;;;;;;;;;;;;19.44;61.91;100646.94;4973489;28;102197;-52
2022/05/28 10:49:33;;;;;;;;;;;;;;;19.54;62.11;100641.00;4964547;28;102194;-51
2022/05/28 10:53:21;;;;;;;8.75;3.58;;;;;;;19.75;61.75;100643.84;5029870;27;104312;-53
2022/05/28 10:56:01;;;;;;;9.20;4.10;;;;;;;19.82;61.59;100630.31;4987990;28;102286;-54
2022/05/28 10:58:46;;;;;;;4.88;3.55;;;;;;;19.73;62.08;100635.09;4969189;28;103860;-54
2022/05/28 11:01:33;;;;;;;7.97;3.53;;;;;;;19.71;61.60;100634.63;4967310;28;102229;-54
2022/05/28 11:04:27;;;;;;;6.97;3.50;;;;;;;19.73;62.09;100632.34;4967646;28;102537;-53
2022/05/28 11:07:30;;;;;;;15.18;4.05;;;;;;;19.70;62.03;100627.50;4969471;28;102392;-53
2022/05/28 11:10:09;;;;;;;7.03;4.75;;;;;;;19.71;61.76;100631.84;4965601;28;108299;-53
2022/05/28 11:12:54;;;;;;;6.97;4.32;;;;;;;19.65;61.82;100625.75;4959614;28;105191;-54
2022/05/28 11:15:32;;;;;;;7.57;3.47;;;;;;;19.66;61.55;100632.06;4956984;28;102228;-54
2022/05/28 11:18:17;;;;;;;8.63;3.20;;;;;;;19.74;61.70;100627.63;4956727;28;102591;-52
2022/05/28 11:20:51;;;;;;;8.90;3.80;;;;;;;19.69;61.55;100620.34;4974072;28;103944;-55
2022/05/28 11:23:34;;;;;;;5.50;3.25;;;;;;;19.63;61.44;100611.44;4971655;28;102125;-53
2022/05/28 11:26:12;;;;;;;10.40;3.80;;;;;;;19.43;62.50;100618.50;4963591;28;102314;-53
2022/05/28 11:29:14;;;;;;;9.45;3.97;;;;;;;19.17;63.46;100620.59;4968148;28;102317;-53
2022/05/28 11:31:46;;;;;;;6.03;4.00;;;;;;;19.04;64.07;100616.09;4974920;28;108071;-53
2022/05/28 11:34:20;;;;;;;9.45;4.07;;;;;;;18.97;64.36;100616.66;5018534;27;102252;-53
2022/05/28 11:36:52;;;;;;;7.03;4.25;;;;;;;18.92;64.41;100620.38;4999564;28;102140;-53
2022/05/28 11:39:23;;;;;;;5.72;4.20;;;;;;;18.85;64.72;100624.78;5002363;28;104329;-53
2022/05/28 11:41:59;;;;;;;6.50;4.28;;;;;;;18.81;64.71;100630.16;5014465;27;103966;-53
2022/05/28 11:44:30;;;;;;;7.68;4.32;;;;;;;18.76;65.11;100621.25;5008701;28;102074;-53
2022/05/28 11:47:01;;;;;;;6.88;4.50;;;;;;;18.71;65.10;100622.22;5009920;27;102163;-53
2022/05/28 11:52:30;;;;;;;8.05;4.20;;;;;;;18.67;65.20;100618.47;5008413;28;104064;-53
2022/05/28 11:55:03;;;;;;;5.57;4.60;;;;;;;18.66;65.60;100600.31;5007871;28;102650;-53
2022/05/28 11:57:37;;;;;;;4.95;4.20;;;;;;;18.64;65.24;100599.84;5004124;28;102484;-53
2022/05/28 12:00:07;;;;;;;5.25;4.05;;;;;;;18.62;65.45;100600.19;4991832;28;102023;-53
2022/05/28 12:02:50;;;;;;;4.50;4.10;;;;;;;18.62;65.32;100596.63;4997272;28;104025;-53
2022/05/28 12:05:19;;;;;;;5.47;4.28;;;;;;;18.59;65.41;100592.56;4992580;28;102282;-53
2022/05/28 12:07:53;;;;;;;6.28;4.45;;;;;;;18.58;65.27;100601.16;4986283;28;102216;-53
2022/05/28 12:10:36;;;;;;;5.90;4.47;;;;;;;18.56;65.48;100595.97;4985570;28;103855;-53
2022/05/28 12:13:06;;;;;;;5.38;4.32;;;;;;;18.56;65.73;100592.41;4989747;28;104915;-53
2022/05/28 12:15:35;;;;;;;6.50;4.32;;;;;;;18.53;65.71;100595.81;4994347;28;102621;-53
2022/05/28 12:18:06;;;;;;;4.60;4.20;;;;;;;18.55;65.70;100596.31;4986806;28;102732;-53
2022/05/28 12:20:36;;;;;;;5.07;4.25;;;;;;;18.53;65.43;100595.81;4995362;28;102331;-53
2022/05/28 12:23:05;;;;;;;6.32;4.40;;;;;;;18.53;65.50;100584.78;4989552;28;104149;-53
2022/05/28 12:25:34;;;;;;;;;;;;;;;18.51;65.77;100598.09;4986758;28;102459;-53
2022/05/28 12:28:09;;;;;;;5.00;4.50;;;;;;;18.52;65.90;100595.00;4982856;28;102601;-53
2022/05/28 12:30:51;;;;;;;5.00;3.95;;;;;;;18.48;65.96;100599.56;4994214;28;102074;-53
2022/05/28 12:33:22;;;;;;;5.18;4.68;;;;;;;18.49;65.53;100598.41;4995062;28;104082;-53
2022/05/28 12:36:03;;;;;;;5.85;4.28;;;;;;;18.47;65.60;100596.00;4996847;28;102200;-53